createdAt,value
2018-03-23T00:00:03.489Z,7.74
2018-03-23T00:01:03.487Z,7.67
2018-03-23T00:02:56.385Z,7.72
2018-03-23T00:03:56.401Z,7.67
2018-03-23T00:05:49.321Z,7.82
2018-03-23T00:06:49.322Z,7.80
2018-03-23T00:08:42.234Z,7.71
2018-03-23T00:09:42.231Z,7.82
2018-03-23T00:11:35.128Z,7.95
2018-03-23T00:12:35.193Z,7.86
2018-03-23T00:14:28.065Z,7.72
2018-03-23T00:15:28.060Z,7.75
2018-03-23T00:17:20.958Z,7.72
2018-03-23T00:18:20.974Z,7.79
2018-03-23T00:20:13.894Z,7.77
2018-03-23T00:21:13.891Z,7.63
2018-03-23T00:23:06.797Z,7.72
2018-03-23T00:24:06.819Z,7.75
2018-03-23T00:25:59.730Z,7.68
2018-03-23T00:26:59.729Z,7.61
2018-03-23T00:28:52.648Z,7.72
2018-03-23T00:29:52.645Z,7.60
2018-03-23T00:31:45.543Z,7.63
2018-03-23T00:32:45.560Z,7.50
2018-03-23T00:34:38.480Z,7.49
2018-03-23T00:35:38.482Z,7.50
2018-03-23T00:37:31.372Z,7.53
2018-03-23T00:38:31.388Z,7.46
2018-03-23T00:40:24.309Z,7.57
2018-03-23T00:41:24.304Z,7.48
2018-03-23T00:43:17.210Z,7.60
2018-03-23T00:44:17.234Z,7.48
2018-03-23T00:46:10.144Z,7.50
2018-03-23T00:47:10.139Z,7.50
2018-03-23T00:49:03.078Z,7.63
2018-03-23T00:50:03.104Z,7.64
2018-03-23T00:51:55.956Z,7.69
2018-03-23T00:52:55.974Z,7.72
2018-03-23T00:54:48.890Z,7.68
2018-03-23T00:55:48.887Z,7.64
2018-03-23T00:57:41.788Z,7.67
2018-03-23T00:58:41.806Z,7.75
2018-03-23T01:00:34.721Z,7.67
2018-03-23T01:01:34.782Z,7.68
2018-03-23T01:03:27.625Z,7.75
2018-03-23T01:04:27.640Z,7.79
2018-03-23T01:06:20.556Z,7.75
2018-03-23T01:07:20.552Z,7.79
2018-03-23T01:09:13.489Z,7.77
2018-03-23T01:10:13.469Z,7.69
2018-03-23T01:12:06.365Z,7.77
2018-03-23T01:13:06.381Z,7.71
2018-03-23T01:14:59.299Z,7.67
2018-03-23T01:15:59.297Z,7.67
2018-03-23T01:17:52.195Z,7.79
2018-03-23T01:18:52.212Z,7.85
2018-03-23T01:20:45.134Z,7.75
2018-03-23T01:21:45.141Z,7.82
2018-03-23T01:23:38.029Z,7.75
2018-03-23T01:24:38.047Z,7.69
2018-03-23T01:26:30.965Z,7.64
2018-03-23T01:27:30.959Z,7.72
2018-03-23T01:29:23.895Z,7.68
2018-03-23T01:30:23.878Z,7.58
2018-03-23T01:32:16.773Z,7.67
2018-03-23T01:33:16.793Z,7.67
2018-03-23T01:35:09.708Z,7.67
2018-03-23T01:36:09.705Z,7.50
2018-03-23T01:38:02.611Z,7.58
2018-03-23T01:39:02.628Z,7.64
2018-03-23T01:40:55.543Z,7.68
2018-03-23T01:41:55.543Z,7.68
2018-03-23T01:43:48.447Z,7.72
2018-03-23T01:44:48.461Z,7.57
2018-03-23T01:46:41.380Z,7.69
2018-03-23T01:47:41.378Z,7.63
2018-03-23T01:49:34.275Z,7.48
2018-03-23T01:50:34.296Z,7.63
2018-03-23T01:52:27.210Z,7.72
2018-03-23T01:53:27.207Z,7.68
2018-03-23T01:55:20.123Z,7.74
2018-03-23T01:56:20.120Z,7.74
2018-03-23T01:58:13.018Z,7.68
2018-03-23T01:59:13.035Z,7.67
2018-03-23T02:01:05.950Z,7.68
2018-03-23T02:02:05.960Z,7.75
2018-03-23T02:03:58.845Z,7.68
2018-03-23T02:04:58.861Z,7.68
2018-03-23T02:06:51.784Z,7.72
2018-03-23T02:07:51.780Z,7.67
2018-03-23T02:09:44.674Z,7.68
2018-03-23T02:10:44.691Z,7.64
2018-03-23T02:12:37.613Z,7.71
2018-03-23T02:13:37.607Z,7.79
2018-03-23T02:15:30.529Z,7.83
2018-03-23T02:16:30.528Z,7.72
2018-03-23T02:18:23.424Z,7.68
2018-03-23T02:19:23.438Z,7.75
2018-03-23T02:21:16.353Z,7.67
2018-03-23T02:22:16.354Z,7.68
2018-03-23T02:24:09.249Z,7.68
2018-03-23T02:25:09.265Z,7.69
2018-03-23T02:27:02.185Z,7.67
2018-03-23T02:28:02.186Z,7.71
2018-03-23T02:29:55.077Z,7.72
2018-03-23T02:30:55.097Z,7.68
2018-03-23T02:32:48.012Z,7.68
2018-03-23T02:33:48.011Z,7.79
2018-03-23T02:35:40.926Z,7.72
2018-03-23T02:36:40.923Z,7.63
2018-03-23T02:38:33.825Z,7.71
2018-03-23T02:39:33.851Z,7.60
2018-03-23T02:41:26.757Z,7.61
2018-03-23T02:42:26.756Z,7.50
2018-03-23T02:44:19.670Z,7.53
2018-03-23T02:45:19.671Z,7.50
2018-03-23T02:47:12.588Z,7.50
2018-03-23T02:48:12.591Z,7.46
2018-03-23T02:50:05.480Z,7.53
2018-03-23T02:51:05.499Z,7.52
2018-03-23T02:52:58.414Z,7.50
2018-03-23T02:53:58.414Z,7.48
2018-03-23T02:55:51.330Z,7.61
2018-03-23T02:56:51.330Z,7.58
2018-03-23T02:58:44.237Z,7.68
2018-03-23T02:59:44.250Z,7.58
2018-03-23T03:01:37.167Z,7.49
2018-03-23T03:02:37.166Z,7.45
2018-03-23T03:04:30.064Z,7.34
2018-03-23T03:05:30.078Z,7.32
2018-03-23T03:07:23.006Z,7.25
2018-03-23T03:08:23.001Z,7.21
2018-03-23T03:10:15.896Z,7.25
2018-03-23T03:11:15.908Z,7.12
2018-03-23T03:13:08.829Z,7.20
2018-03-23T03:14:08.827Z,7.17
2018-03-23T03:16:01.743Z,7.15
2018-03-23T03:17:01.740Z,7.07
2018-03-23T03:18:54.639Z,7.09
2018-03-23T03:19:54.656Z,7.10
2018-03-23T03:21:47.575Z,7.10
2018-03-23T03:22:47.570Z,7.12
2018-03-23T03:24:40.465Z,7.10
2018-03-23T03:25:40.484Z,7.16
2018-03-23T03:27:33.395Z,7.15
2018-03-23T03:28:33.393Z,7.24
2018-03-23T03:30:26.294Z,7.27
2018-03-23T03:31:26.309Z,7.25
2018-03-23T03:33:19.225Z,7.24
2018-03-23T03:34:19.222Z,7.27
2018-03-23T03:36:12.139Z,7.13
2018-03-23T03:37:12.137Z,7.17
2018-03-23T03:39:05.035Z,7.16
2018-03-23T03:40:05.053Z,7.15
2018-03-23T03:41:57.969Z,7.16
2018-03-23T03:42:57.968Z,7.09
2018-03-23T03:44:50.863Z,7.13
2018-03-23T03:45:50.879Z,7.17
2018-03-23T03:47:43.794Z,7.27
2018-03-23T03:48:43.792Z,7.24
2018-03-23T03:50:36.695Z,7.30
2018-03-23T03:51:36.709Z,7.24
2018-03-23T03:53:29.625Z,7.13
2018-03-23T03:54:29.623Z,7.13
2018-03-23T03:56:22.541Z,7.23
2018-03-23T03:57:22.534Z,7.24
2018-03-23T03:59:15.431Z,7.16
2018-03-23T04:00:15.451Z,7.15
2018-03-23T04:02:08.370Z,7.27
2018-03-23T04:03:08.366Z,7.40
2018-03-23T04:05:01.268Z,7.45
2018-03-23T04:06:01.280Z,7.45
2018-03-23T04:07:54.197Z,7.52
2018-03-23T04:08:54.193Z,7.63
2018-03-23T04:10:47.093Z,7.57
2018-03-23T04:11:47.108Z,7.61
2018-03-23T04:13:40.026Z,7.64
2018-03-23T04:14:40.023Z,7.72
2018-03-23T04:16:32.939Z,7.71
2018-03-23T04:17:32.938Z,7.72
2018-03-23T04:19:25.838Z,7.77
2018-03-23T04:20:25.856Z,7.77
2018-03-23T04:22:18.774Z,7.83
2018-03-23T04:23:18.772Z,7.86
2018-03-23T04:25:11.667Z,7.82
2018-03-23T04:26:11.685Z,7.90
2018-03-23T04:28:04.602Z,7.89
2018-03-23T04:29:04.598Z,7.83
2018-03-23T04:30:57.500Z,7.74
2018-03-23T04:31:57.518Z,7.69
2018-03-23T04:33:50.432Z,7.74
2018-03-23T04:34:50.428Z,7.75
2018-03-23T04:36:43.350Z,7.68
2018-03-23T04:37:43.346Z,7.75
2018-03-23T04:39:36.243Z,7.63
2018-03-23T04:40:36.259Z,7.64
2018-03-23T04:42:29.180Z,7.61
2018-03-23T04:43:29.175Z,7.61
2018-03-23T04:45:22.076Z,7.64
2018-03-23T04:46:22.093Z,7.61
2018-03-23T04:48:15.010Z,7.58
2018-03-23T04:49:15.011Z,7.67
2018-03-23T04:51:07.907Z,7.63
2018-03-23T04:52:07.925Z,7.60
2018-03-23T04:54:00.839Z,7.64
2018-03-23T04:55:00.838Z,7.58
2018-03-23T04:56:53.752Z,7.58
2018-03-23T04:57:53.754Z,7.55
2018-03-23T04:59:46.650Z,7.58
2018-03-23T05:00:46.667Z,7.63
2018-03-23T05:02:39.586Z,7.63
2018-03-23T05:03:39.582Z,7.49
2018-03-23T05:05:32.481Z,7.64
2018-03-23T05:06:32.497Z,7.61
2018-03-23T05:08:25.415Z,7.58
2018-03-23T05:09:25.427Z,7.58
2018-03-23T05:11:18.310Z,7.67
2018-03-23T05:12:18.326Z,7.67
2018-03-23T05:14:11.243Z,7.68
2018-03-23T05:15:11.240Z,7.68
2018-03-23T05:17:04.156Z,7.68
2018-03-23T05:18:04.155Z,7.64
2018-03-23T05:19:57.056Z,7.72
2018-03-23T05:20:57.072Z,7.71
2018-03-23T05:22:49.988Z,7.68
2018-03-23T05:23:49.984Z,7.68
2018-03-23T05:25:42.884Z,7.75
2018-03-23T05:26:42.899Z,7.69
2018-03-23T05:28:35.815Z,7.71
2018-03-23T05:29:35.811Z,7.86
2018-03-23T05:31:28.715Z,7.71
2018-03-23T05:32:28.759Z,7.72
2018-03-23T05:34:21.663Z,7.71
2018-03-23T05:35:21.649Z,7.77
2018-03-23T05:37:14.572Z,7.79
2018-03-23T05:38:14.572Z,7.82
2018-03-23T05:40:07.470Z,7.80
2018-03-23T05:41:07.487Z,7.82
2018-03-23T05:43:00.408Z,7.79
2018-03-23T05:44:00.406Z,7.83
2018-03-23T05:45:53.300Z,7.79
2018-03-23T05:46:53.317Z,7.79
2018-03-23T05:48:46.240Z,7.85
2018-03-23T05:49:46.237Z,7.83
2018-03-23T05:51:39.138Z,7.90
2018-03-23T05:52:39.156Z,7.92
2018-03-23T05:54:32.077Z,7.92
2018-03-23T05:55:32.074Z,7.90
2018-03-23T05:57:24.990Z,7.90
2018-03-23T05:58:24.992Z,7.92
2018-03-23T06:00:17.886Z,7.95
2018-03-23T06:01:17.903Z,7.97
2018-03-23T06:03:10.891Z,7.92
2018-03-23T06:04:10.819Z,7.86
2018-03-23T06:06:03.722Z,7.82
2018-03-23T06:07:03.739Z,7.82
2018-03-23T06:08:56.656Z,7.95
2018-03-23T06:09:56.663Z,7.82
2018-03-23T06:11:49.550Z,7.83
2018-03-23T06:12:49.570Z,7.80
2018-03-23T06:14:42.484Z,7.89
2018-03-23T06:15:42.483Z,7.86
2018-03-23T06:17:35.404Z,7.93
2018-03-23T06:18:35.400Z,7.87
2018-03-23T06:20:28.298Z,7.92
2018-03-23T06:21:28.315Z,7.90
2018-03-23T06:23:21.232Z,7.83
2018-03-23T06:24:21.230Z,7.83
2018-03-23T06:26:14.128Z,7.77
2018-03-23T06:27:14.146Z,7.83
2018-03-23T06:29:07.063Z,7.90
2018-03-23T06:30:07.062Z,7.87
2018-03-23T06:31:59.959Z,7.92
2018-03-23T06:32:59.975Z,7.86
2018-03-23T06:34:52.899Z,7.98
2018-03-23T06:35:52.893Z,7.87
2018-03-23T06:37:45.808Z,7.93
2018-03-23T06:38:45.810Z,7.90
2018-03-23T06:40:38.705Z,7.92
2018-03-23T06:41:38.723Z,7.92
2018-03-23T06:43:31.638Z,7.95
2018-03-23T06:44:31.643Z,8.00
2018-03-23T06:46:24.537Z,8.00
2018-03-23T06:47:24.553Z,8.05
2018-03-23T06:49:17.473Z,8.02
2018-03-23T06:50:17.471Z,8.04
2018-03-23T06:52:10.370Z,8.10
2018-03-23T06:53:10.388Z,8.11
2018-03-23T06:55:03.309Z,8.05
2018-03-23T06:56:03.306Z,8.05
2018-03-23T06:57:56.223Z,8.08
2018-03-23T06:58:56.272Z,8.18
2018-03-23T07:00:49.126Z,8.11
2018-03-23T07:01:49.148Z,8.08
2018-03-23T07:03:42.060Z,8.07
2018-03-23T07:04:42.059Z,8.00
2018-03-23T07:06:34.962Z,8.04
2018-03-23T07:07:34.975Z,8.10
2018-03-23T07:09:27.891Z,8.10
2018-03-23T07:10:27.890Z,8.05
2018-03-23T07:12:20.793Z,8.07
2018-03-23T07:13:20.809Z,8.07
2018-03-23T07:15:13.727Z,8.08
2018-03-23T07:16:13.725Z,8.15
2018-03-23T07:18:06.644Z,8.19
2018-03-23T07:19:06.640Z,8.19
2018-03-23T07:20:59.540Z,8.25
2018-03-23T07:21:59.601Z,8.23
2018-03-23T07:23:52.473Z,8.22
2018-03-23T07:24:52.475Z,8.22
2018-03-23T07:26:45.374Z,8.22
2018-03-23T07:27:45.390Z,8.20
2018-03-23T07:29:38.309Z,8.18
2018-03-23T07:30:38.309Z,8.23
2018-03-23T07:32:31.206Z,8.23
2018-03-23T07:33:31.224Z,8.26
2018-03-23T07:35:24.144Z,8.19
2018-03-23T07:36:24.143Z,8.18
2018-03-23T07:38:17.061Z,8.26
2018-03-23T07:39:17.058Z,8.19
2018-03-23T07:41:09.959Z,8.20
2018-03-23T07:42:09.983Z,8.15
2018-03-23T07:44:02.895Z,8.22
2018-03-23T07:45:02.892Z,8.34
2018-03-23T07:46:55.795Z,8.34
2018-03-23T07:47:55.810Z,8.36
2018-03-23T07:49:48.735Z,8.34
2018-03-23T07:50:48.728Z,8.29
2018-03-23T07:52:41.633Z,8.22
2018-03-23T07:53:41.707Z,8.30
2018-03-23T07:55:34.573Z,8.28
2018-03-23T07:56:34.564Z,8.30
2018-03-23T07:58:27.488Z,8.29
2018-03-23T07:59:27.484Z,8.26
2018-03-23T08:01:20.391Z,8.29
2018-03-23T08:02:20.402Z,8.34
2018-03-23T08:04:13.325Z,8.33
2018-03-23T08:05:13.318Z,8.33
2018-03-23T08:07:06.228Z,8.25
2018-03-23T08:08:06.237Z,8.29
2018-03-23T08:09:59.153Z,8.19
2018-03-23T08:10:59.153Z,8.23
2018-03-23T08:12:52.051Z,8.19
2018-03-23T08:13:52.067Z,8.18
2018-03-23T08:15:44.988Z,8.23
2018-03-23T08:16:44.984Z,8.30
2018-03-23T08:18:37.908Z,8.30
2018-03-23T08:19:37.897Z,8.30
2018-03-23T08:21:30.798Z,8.30
2018-03-23T08:22:30.817Z,8.30
2018-03-23T08:24:23.742Z,8.37
2018-03-23T08:25:23.737Z,8.43
2018-03-23T08:27:16.640Z,8.37
2018-03-23T08:28:16.656Z,8.43
2018-03-23T08:30:09.574Z,8.48
2018-03-23T08:31:09.602Z,8.44
2018-03-23T08:33:02.473Z,8.48
2018-03-23T08:34:02.491Z,8.55
2018-03-23T08:35:55.436Z,8.58
2018-03-23T08:36:55.405Z,8.52
2018-03-23T08:38:48.328Z,8.55
2018-03-23T08:39:48.331Z,8.56
2018-03-23T08:41:41.238Z,8.63
2018-03-23T08:42:41.250Z,8.71
2018-03-23T08:44:34.168Z,8.65
2018-03-23T08:45:34.168Z,8.71
2018-03-23T08:47:27.067Z,8.73
2018-03-23T08:48:27.085Z,8.70
2018-03-23T08:50:20.012Z,8.63
2018-03-23T08:51:20.008Z,8.74
2018-03-23T08:53:12.914Z,8.71
2018-03-23T08:54:12.933Z,8.61
2018-03-23T08:56:05.854Z,8.71
2018-03-23T08:57:05.851Z,8.73
2018-03-23T08:58:58.770Z,8.76
2018-03-23T08:59:58.769Z,8.68
2018-03-23T09:01:51.672Z,8.70
2018-03-23T09:02:51.687Z,8.61
2018-03-23T09:04:44.609Z,8.79
2018-03-23T09:05:44.607Z,8.83
2018-03-23T09:07:37.506Z,8.81
2018-03-23T09:08:37.526Z,8.83
2018-03-23T09:10:30.443Z,8.83
2018-03-23T09:11:30.439Z,8.87
2018-03-23T09:13:23.344Z,8.98
2018-03-23T09:14:23.362Z,8.96
2018-03-23T09:16:16.281Z,9.05
2018-03-23T09:17:16.280Z,9.20
2018-03-23T09:19:09.199Z,9.15
2018-03-23T09:20:09.199Z,9.14
2018-03-23T09:22:02.099Z,9.18
2018-03-23T09:23:02.118Z,9.26
2018-03-23T09:24:55.036Z,9.17
2018-03-23T09:25:55.040Z,9.17
2018-03-23T09:27:47.940Z,9.26
2018-03-23T09:28:47.958Z,9.28
2018-03-23T09:30:40.880Z,9.26
2018-03-23T09:31:40.878Z,9.33
2018-03-23T09:33:33.786Z,9.40
2018-03-23T09:34:33.799Z,9.48
2018-03-23T09:36:26.724Z,9.42
2018-03-23T09:37:26.720Z,9.47
2018-03-23T09:39:19.642Z,9.51
2018-03-23T09:40:19.642Z,9.51
2018-03-23T09:42:12.541Z,9.51
2018-03-23T09:43:12.559Z,9.50
2018-03-23T09:45:05.482Z,9.40
2018-03-23T09:46:05.480Z,9.42
2018-03-23T09:47:58.385Z,9.38
2018-03-23T09:48:58.406Z,9.43
2018-03-23T09:50:51.321Z,9.46
2018-03-23T09:51:51.321Z,9.40
2018-03-23T09:53:44.225Z,9.48
2018-03-23T09:54:44.242Z,9.51
2018-03-23T09:56:37.164Z,9.61
2018-03-23T09:57:37.160Z,9.64
2018-03-23T09:59:30.082Z,9.76
2018-03-23T10:00:30.083Z,9.81
2018-03-23T10:02:22.982Z,9.89
2018-03-23T10:03:23.000Z,10.01
2018-03-23T10:05:15.923Z,10.15
2018-03-23T10:06:15.923Z,10.18
2018-03-23T10:08:08.823Z,10.17
2018-03-23T10:09:08.843Z,10.23
2018-03-23T10:11:01.768Z,10.30
2018-03-23T10:12:01.769Z,10.29
2018-03-23T10:13:54.674Z,10.29
2018-03-23T10:14:54.693Z,10.38
2018-03-23T10:16:47.618Z,10.55
2018-03-23T10:17:47.617Z,10.66
2018-03-23T10:19:40.542Z,10.60
2018-03-23T10:20:40.562Z,10.67
2018-03-23T10:22:33.446Z,10.60
2018-03-23T10:23:33.466Z,10.64
2018-03-23T10:25:26.393Z,10.45
2018-03-23T10:26:26.389Z,10.29
2018-03-23T10:28:19.291Z,10.23
2018-03-23T10:29:19.313Z,10.18
2018-03-23T10:31:12.233Z,10.14
2018-03-23T10:32:12.234Z,10.14
2018-03-23T10:34:05.137Z,10.18
2018-03-23T10:35:05.156Z,10.30
2018-03-23T10:36:58.085Z,10.29
2018-03-23T10:37:58.086Z,10.44
2018-03-23T10:39:51.008Z,10.61
2018-03-23T10:40:51.010Z,10.66
2018-03-23T10:42:43.912Z,10.94
2018-03-23T10:43:43.933Z,10.97
2018-03-23T10:45:36.864Z,11.21
2018-03-23T10:46:36.865Z,11.27
2018-03-23T10:48:29.770Z,11.42
2018-03-23T10:49:29.794Z,11.39
2018-03-23T10:51:22.717Z,11.39
2018-03-23T10:52:22.717Z,11.39
2018-03-23T10:54:15.623Z,11.40
2018-03-23T10:55:15.666Z,11.40
2018-03-23T10:57:08.574Z,11.32
2018-03-23T10:58:08.572Z,11.36
2018-03-23T11:00:01.496Z,11.22
2018-03-23T11:01:01.496Z,11.21
2018-03-23T11:02:54.402Z,11.14
2018-03-23T11:03:54.422Z,10.96
2018-03-23T11:05:47.347Z,10.88
2018-03-23T11:06:47.348Z,10.81
2018-03-23T11:08:40.255Z,10.71
2018-03-23T11:09:40.273Z,10.79
2018-03-23T11:11:33.417Z,10.63
2018-03-23T11:12:33.409Z,10.66
2018-03-23T11:14:26.309Z,10.64
2018-03-23T11:15:26.329Z,10.53
2018-03-23T11:17:19.252Z,10.53
2018-03-23T11:18:19.251Z,10.53
2018-03-23T11:20:12.175Z,10.59
2018-03-23T11:21:12.179Z,10.51
2018-03-23T11:23:05.082Z,10.52
2018-03-23T11:24:05.104Z,10.48
2018-03-23T11:25:58.024Z,10.53
2018-03-23T11:26:58.024Z,10.53
2018-03-23T11:28:51.110Z,10.36
2018-03-23T11:29:51.129Z,10.44
2018-03-23T11:31:44.050Z,10.36
2018-03-23T11:32:44.051Z,10.34
2018-03-23T11:34:36.958Z,10.34
2018-03-23T11:35:36.979Z,10.41
2018-03-23T11:37:29.899Z,10.45
2018-03-23T11:38:29.901Z,10.47
2018-03-23T11:40:22.824Z,10.47
2018-03-23T11:41:22.824Z,10.34
2018-03-23T11:43:15.728Z,10.36
2018-03-23T11:44:15.750Z,10.29
2018-03-23T11:46:08.858Z,10.30
2018-03-23T11:47:08.859Z,10.30
2018-03-23T11:49:01.763Z,10.36
2018-03-23T11:50:01.783Z,10.42
2018-03-23T11:51:54.706Z,10.45
2018-03-23T11:52:54.705Z,10.41
2018-03-23T11:54:47.609Z,10.41
2018-03-23T11:55:47.630Z,10.40
2018-03-23T11:57:40.555Z,10.45
2018-03-23T11:58:40.552Z,10.47
2018-03-23T12:00:33.481Z,10.56
2018-03-23T12:01:33.482Z,10.63
2018-03-23T12:03:26.385Z,10.79
2018-03-23T12:04:26.404Z,10.79
2018-03-23T12:06:19.327Z,11.03
2018-03-23T12:07:19.329Z,11.19
2018-03-23T12:09:12.234Z,11.25
2018-03-23T12:10:12.253Z,11.22
2018-03-23T12:12:05.176Z,11.39
2018-03-23T12:13:05.176Z,11.42
2018-03-23T12:14:58.084Z,11.47
2018-03-23T12:15:58.103Z,11.61
2018-03-23T12:17:51.027Z,11.65
2018-03-23T12:18:51.029Z,11.60
2018-03-23T12:20:43.955Z,11.62
2018-03-23T12:21:43.956Z,11.70
2018-03-23T12:23:36.862Z,11.70
2018-03-23T12:24:36.881Z,11.54
2018-03-23T12:26:29.810Z,11.57
2018-03-23T12:27:29.842Z,11.44
2018-03-23T12:29:22.717Z,11.39
2018-03-23T12:30:22.738Z,11.39
2018-03-23T12:32:15.665Z,11.49
2018-03-23T12:33:15.668Z,11.49
2018-03-23T12:35:08.596Z,11.67
2018-03-23T12:36:08.616Z,11.73
2018-03-23T12:38:01.564Z,11.95
2018-03-23T12:39:01.548Z,12.10
2018-03-23T12:40:54.470Z,12.14
2018-03-23T12:41:54.474Z,12.14
2018-03-23T12:43:47.377Z,12.41
2018-03-23T12:44:47.407Z,12.45
2018-03-23T12:46:40.329Z,12.52
2018-03-23T12:47:40.329Z,12.65
2018-03-23T12:49:33.242Z,12.92
2018-03-23T12:50:33.277Z,13.01
2018-03-23T12:52:26.194Z,13.12
2018-03-23T12:53:26.200Z,13.17
2018-03-23T12:55:19.108Z,13.10
2018-03-23T12:56:19.160Z,13.05
2018-03-23T12:58:12.055Z,13.19
2018-03-23T12:59:12.061Z,13.25
2018-03-23T13:01:05.006Z,13.25
2018-03-23T13:02:05.006Z,13.32
2018-03-23T13:03:57.918Z,13.30
2018-03-23T13:04:57.940Z,13.42
2018-03-23T13:06:50.866Z,13.17
2018-03-23T13:07:50.869Z,12.93
2018-03-23T13:09:43.778Z,12.92
2018-03-23T13:10:43.801Z,12.95
2018-03-23T13:12:36.730Z,12.87
2018-03-23T13:13:36.732Z,12.92
2018-03-23T13:15:29.639Z,12.95
2018-03-23T13:16:29.660Z,13.10
2018-03-23T13:18:22.587Z,12.90
2018-03-23T13:19:22.591Z,12.79
2018-03-23T13:21:15.518Z,12.62
2018-03-23T13:22:15.526Z,12.62
2018-03-23T13:24:08.428Z,12.38
2018-03-23T13:25:08.450Z,12.31
2018-03-23T13:27:01.375Z,12.29
2018-03-23T13:28:01.375Z,12.13
2018-03-23T13:29:54.287Z,12.14
2018-03-23T13:30:54.304Z,12.12
2018-03-23T13:32:47.238Z,11.75
2018-03-23T13:33:47.247Z,11.60
2018-03-23T13:35:41.141Z,11.69
2018-03-23T13:36:41.164Z,11.67
2018-03-23T13:38:34.095Z,11.58
2018-03-23T13:39:34.092Z,11.62
2018-03-23T13:41:27.020Z,11.52
2018-03-23T13:42:27.020Z,11.49
2018-03-23T13:44:19.924Z,11.39
2018-03-23T13:45:19.961Z,11.39
2018-03-23T13:47:12.870Z,11.39
2018-03-23T13:48:12.872Z,11.39
2018-03-23T13:50:05.799Z,11.36
2018-03-23T13:51:05.794Z,11.46
2018-03-23T13:52:58.718Z,11.40
2018-03-23T13:53:58.719Z,11.39
2018-03-23T13:55:51.627Z,11.37
2018-03-23T13:56:51.645Z,11.37
2018-03-23T13:58:44.570Z,11.40
2018-03-23T13:59:44.600Z,11.35
2018-03-23T14:01:37.514Z,11.47
2018-03-23T14:02:37.493Z,11.40
2018-03-23T14:04:30.396Z,11.49
2018-03-23T14:05:30.417Z,11.43
2018-03-23T14:07:23.339Z,11.44
2018-03-23T14:08:23.344Z,11.52
2018-03-23T14:10:16.246Z,11.54
2018-03-23T14:11:16.268Z,11.60
2018-03-23T14:13:09.191Z,11.70
2018-03-23T14:14:09.191Z,11.65
2018-03-23T14:16:02.098Z,11.67
2018-03-23T14:17:02.117Z,11.65
2018-03-23T14:18:55.042Z,11.60
2018-03-23T14:19:55.046Z,11.57
2018-03-23T14:21:47.968Z,11.47
2018-03-23T14:22:47.971Z,11.46
2018-03-23T14:24:40.877Z,11.40
2018-03-23T14:25:40.897Z,11.39
2018-03-23T14:27:33.821Z,11.42
2018-03-23T14:28:33.821Z,11.42
2018-03-23T14:30:26.726Z,11.33
2018-03-23T14:31:26.746Z,11.42
2018-03-23T14:33:19.670Z,11.39
2018-03-23T14:34:19.672Z,11.42
2018-03-23T14:36:12.578Z,11.54
2018-03-23T14:37:12.600Z,11.47
2018-03-23T14:39:05.521Z,11.44
2018-03-23T14:40:05.523Z,11.42
2018-03-23T14:41:58.447Z,11.36
2018-03-23T14:42:58.450Z,11.42
2018-03-23T14:44:51.352Z,11.55
2018-03-23T14:45:51.371Z,11.60
2018-03-23T14:47:44.296Z,11.62
2018-03-23T14:48:44.297Z,11.69
2018-03-23T14:50:37.203Z,11.60
2018-03-23T14:51:37.222Z,11.73
2018-03-23T14:53:30.149Z,11.67
2018-03-23T14:54:30.151Z,11.62
2018-03-23T14:56:23.055Z,11.69
2018-03-23T14:57:23.076Z,11.64
2018-03-23T14:59:16.006Z,11.54
2018-03-23T15:00:16.004Z,11.55
2018-03-23T15:02:08.928Z,11.43
2018-03-23T15:03:08.931Z,11.47
2018-03-23T15:05:01.834Z,11.44
2018-03-23T15:06:01.853Z,11.44
2018-03-23T15:07:54.777Z,11.52
2018-03-23T15:08:54.779Z,11.49
2018-03-23T15:10:47.684Z,11.51
2018-03-23T15:11:47.705Z,11.54
2018-03-23T15:13:40.627Z,11.43
2018-03-23T15:14:40.631Z,11.44
2018-03-23T15:16:33.535Z,11.40
2018-03-23T15:17:33.555Z,11.37
2018-03-23T15:19:26.482Z,11.37
2018-03-23T15:20:26.480Z,11.35
2018-03-23T15:22:19.404Z,11.39
2018-03-23T15:23:19.408Z,11.36
2018-03-23T15:25:12.322Z,11.37
2018-03-23T15:26:12.344Z,11.37
2018-03-23T15:28:05.264Z,11.35
2018-03-23T15:29:05.267Z,11.24
2018-03-23T15:30:58.168Z,10.89
2018-03-23T15:31:58.191Z,10.85
2018-03-23T15:33:51.115Z,10.67
2018-03-23T15:34:51.113Z,10.63
2018-03-23T15:36:44.018Z,10.55
2018-03-23T15:37:44.035Z,10.67
2018-03-23T15:39:36.957Z,10.67
2018-03-23T15:40:36.959Z,10.81
2018-03-23T15:42:29.881Z,10.76
2018-03-23T15:43:29.886Z,10.79
2018-03-23T15:45:22.784Z,10.78
2018-03-23T15:46:22.805Z,10.81
2018-03-23T15:48:15.727Z,10.79
2018-03-23T15:49:15.728Z,10.86
2018-03-23T15:51:08.632Z,10.97
2018-03-23T15:52:08.653Z,10.96
2018-03-23T15:54:01.575Z,11.02
2018-03-23T15:55:01.575Z,11.04
2018-03-23T15:56:54.482Z,11.10
2018-03-23T15:57:54.504Z,11.11
2018-03-23T15:59:47.425Z,11.04
2018-03-23T16:00:47.426Z,11.03
2018-03-23T16:02:40.349Z,10.97
2018-03-23T16:03:40.353Z,10.99
2018-03-23T16:05:33.253Z,11.04
2018-03-23T16:06:33.273Z,10.94
2018-03-23T16:08:26.198Z,11.06
2018-03-23T16:09:26.199Z,11.00
2018-03-23T16:11:19.108Z,11.07
2018-03-23T16:12:19.128Z,10.97
2018-03-23T16:14:12.051Z,11.07
2018-03-23T16:15:12.051Z,11.19
2018-03-23T16:17:04.959Z,11.32
2018-03-23T16:18:04.977Z,11.14
2018-03-23T16:19:57.899Z,11.17
2018-03-23T16:20:57.899Z,11.10
2018-03-23T16:22:50.842Z,11.18
2018-03-23T16:23:50.823Z,11.09
2018-03-23T16:25:43.731Z,11.11
2018-03-23T16:26:43.747Z,11.17
2018-03-23T16:28:36.671Z,11.11
2018-03-23T16:29:36.670Z,11.07
2018-03-23T16:31:29.580Z,11.07
2018-03-23T16:32:29.598Z,11.15
2018-03-23T16:34:22.522Z,11.11
2018-03-23T16:35:22.522Z,11.17
2018-03-23T16:37:15.432Z,11.17
2018-03-23T16:38:15.446Z,11.11
2018-03-23T16:40:08.375Z,11.11
2018-03-23T16:41:08.374Z,11.15
2018-03-23T16:43:01.325Z,11.17
2018-03-23T16:44:01.302Z,11.06
2018-03-23T16:45:54.204Z,11.04
2018-03-23T16:46:54.227Z,10.94
2018-03-23T16:48:47.151Z,10.99
2018-03-23T16:49:47.153Z,10.99
2018-03-23T16:51:40.056Z,10.84
2018-03-23T16:52:40.079Z,10.79
2018-03-23T16:54:32.995Z,10.79
2018-03-23T16:55:32.998Z,10.78
2018-03-23T16:57:25.902Z,10.79
2018-03-23T16:58:25.922Z,10.76
2018-03-23T17:00:18.920Z,10.76
2018-03-23T17:01:18.856Z,10.63
2018-03-23T17:03:11.832Z,10.66
2018-03-23T17:04:11.806Z,10.61
2018-03-23T17:06:04.716Z,10.56
2018-03-23T17:07:04.730Z,10.63
2018-03-23T17:08:57.649Z,10.53
2018-03-23T17:09:57.655Z,10.45
2018-03-23T17:11:50.553Z,10.36
2018-03-23T17:12:50.577Z,10.40
2018-03-23T17:14:43.524Z,10.42
2018-03-23T17:15:43.526Z,10.34
2018-03-23T17:17:36.426Z,10.41
2018-03-23T17:18:36.446Z,10.38
2018-03-23T17:20:29.367Z,10.38
2018-03-23T17:21:29.367Z,10.22
2018-03-23T17:23:22.312Z,10.18
2018-03-23T17:24:22.290Z,10.15
2018-03-23T17:26:15.199Z,10.22
2018-03-23T17:27:15.223Z,10.07
2018-03-23T17:29:08.151Z,10.12
2018-03-23T17:30:08.140Z,10.05
2018-03-23T17:32:01.067Z,9.96
2018-03-23T17:33:01.058Z,9.89
2018-03-23T17:34:53.985Z,9.90
2018-03-23T17:35:53.987Z,9.93
2018-03-23T17:37:46.887Z,9.96
2018-03-23T17:38:46.906Z,9.86
2018-03-23T17:40:39.832Z,9.81
2018-03-23T17:41:39.829Z,9.79
2018-03-23T17:43:32.732Z,9.81
2018-03-23T17:44:32.748Z,9.72
2018-03-23T17:46:25.671Z,9.76
2018-03-23T17:47:25.672Z,9.84
2018-03-23T17:49:18.594Z,9.79
2018-03-23T17:50:18.597Z,9.81
2018-03-23T17:52:11.496Z,9.86
2018-03-23T17:53:11.513Z,9.87
2018-03-23T17:55:04.454Z,9.89
2018-03-23T17:56:04.456Z,9.93
2018-03-23T17:57:57.364Z,9.96
2018-03-23T17:58:57.395Z,9.87
2018-03-23T18:00:50.555Z,9.90
2018-03-23T18:01:50.300Z,9.89
2018-03-23T18:03:43.206Z,9.89
2018-03-23T18:04:43.223Z,9.86
2018-03-23T18:06:36.145Z,9.87
2018-03-23T18:07:36.145Z,9.74
2018-03-23T18:09:29.064Z,9.69
2018-03-23T18:10:29.060Z,9.61
2018-03-23T18:12:21.962Z,9.72
2018-03-23T18:13:21.981Z,9.65
2018-03-23T18:15:14.899Z,9.71
2018-03-23T18:16:14.901Z,9.65
2018-03-23T18:18:07.816Z,9.64
2018-03-23T18:19:07.822Z,9.72
2018-03-23T18:21:00.746Z,9.65
2018-03-23T18:22:00.743Z,9.74
2018-03-23T18:23:53.647Z,9.83
2018-03-23T18:24:53.665Z,9.75
2018-03-23T18:26:46.593Z,9.76
2018-03-23T18:27:46.584Z,9.64
2018-03-23T18:29:39.507Z,9.53
2018-03-23T18:30:39.508Z,9.46
2018-03-23T18:32:32.413Z,9.43
2018-03-23T18:33:32.427Z,9.32
2018-03-23T18:35:25.347Z,9.39
2018-03-23T18:36:25.346Z,9.29
2018-03-23T18:38:18.247Z,9.26
2018-03-23T18:39:18.264Z,9.23
2018-03-23T18:41:11.184Z,9.18
2018-03-23T18:42:11.183Z,9.26
2018-03-23T18:44:04.087Z,9.18
2018-03-23T18:45:04.104Z,9.33
2018-03-23T18:46:57.021Z,9.31
2018-03-23T18:47:57.022Z,9.39
2018-03-23T18:49:49.944Z,9.43
2018-03-23T18:50:49.946Z,9.40
2018-03-23T18:52:42.840Z,9.43
2018-03-23T18:53:42.859Z,9.46
2018-03-23T18:55:35.780Z,9.54